createdAt,value
2018-10-18T00:01:39.708Z,90.00
2018-10-18T00:04:09.450Z,90.00
2018-10-18T00:06:39.208Z,90.10
2018-10-18T00:09:10.746Z,90.10
2018-10-18T00:11:40.746Z,90.20
2018-10-18T00:14:10.480Z,90.30
2018-10-18T00:16:40.171Z,90.30
2018-10-18T00:19:09.857Z,90.20
2018-10-18T00:21:39.632Z,90.10
2018-10-18T00:24:09.538Z,90.20
2018-10-18T00:26:39.318Z,90.20
2018-10-18T00:29:09.014Z,90.30
2018-10-18T00:31:38.758Z,90.70
2018-10-18T00:34:08.511Z,90.50
2018-10-18T00:36:38.233Z,90.40
2018-10-18T00:39:10.318Z,90.30
2018-10-18T00:41:40.042Z,90.30
2018-10-18T00:44:10.057Z,90.30
2018-10-18T00:46:39.684Z,90.30
2018-10-18T00:49:09.398Z,90.30
2018-10-18T00:51:39.074Z,90.20
2018-10-18T00:54:08.941Z,90.20
2018-10-18T00:56:38.615Z,90.20
2018-10-18T00:59:08.362Z,90.30
2018-10-18T01:01:38.074Z,90.30
2018-10-18T01:04:08.058Z,90.20
2018-10-18T01:06:37.894Z,90.20
2018-10-18T01:09:09.197Z,90.40
2018-10-18T01:11:38.957Z,90.40
2018-10-18T01:14:09.614Z,90.50
2018-10-18T01:16:39.300Z,90.60
2018-10-18T01:19:09.008Z,90.60
2018-10-18T01:21:41.255Z,90.70
2018-10-18T01:24:11.036Z,90.60
2018-10-18T01:26:40.704Z,90.50
2018-10-18T01:29:10.381Z,90.50
2018-10-18T01:31:40.095Z,90.50
2018-10-18T01:34:09.821Z,90.50
2018-10-18T01:36:39.594Z,90.30
2018-10-18T01:39:09.487Z,90.20
2018-10-18T01:41:39.891Z,90.30
2018-10-18T01:44:09.918Z,90.40
2018-10-18T01:46:39.583Z,90.50
2018-10-18T01:49:09.437Z,90.60
2018-10-18T01:51:39.179Z,90.80
2018-10-18T01:54:09.092Z,90.80
2018-10-18T01:56:38.768Z,90.80
2018-10-18T01:59:08.474Z,90.70
2018-10-18T02:01:38.371Z,90.70
2018-10-18T02:04:08.105Z,90.50
2018-10-18T02:06:37.840Z,90.60
2018-10-18T02:09:10.799Z,90.40
2018-10-18T02:11:41.063Z,90.60
2018-10-18T02:14:10.767Z,90.70
2018-10-18T02:16:40.492Z,90.70
2018-10-18T02:19:10.341Z,90.70
2018-10-18T02:21:40.069Z,90.70
2018-10-18T02:24:09.854Z,91.00
2018-10-18T02:26:39.439Z,90.90
2018-10-18T02:29:15.558Z,91.00
2018-10-18T02:31:45.285Z,90.90
2018-10-18T02:34:15.079Z,90.80
2018-10-18T02:36:44.807Z,90.80
2018-10-18T02:39:14.536Z,90.70
2018-10-18T02:41:44.284Z,90.70
2018-10-18T02:44:13.995Z,90.70
2018-10-18T02:46:43.707Z,90.70
2018-10-18T02:49:13.403Z,90.70
2018-10-18T02:51:43.144Z,90.60
2018-10-18T02:54:12.900Z,90.50
2018-10-18T02:56:42.543Z,90.70
2018-10-18T02:59:12.371Z,90.60
2018-10-18T03:01:42.072Z,90.50
2018-10-18T03:04:11.851Z,90.50
2018-10-18T03:06:41.588Z,90.50
2018-10-18T03:09:12.217Z,90.50
2018-10-18T03:11:42.341Z,90.50
2018-10-18T03:14:12.053Z,90.50
2018-10-18T03:16:41.757Z,90.50
2018-10-18T03:19:11.631Z,90.60
2018-10-18T03:21:41.328Z,90.50
2018-10-18T03:24:11.172Z,90.40
2018-10-18T03:26:40.823Z,90.90
2018-10-18T03:29:10.521Z,90.60
2018-10-18T03:31:40.182Z,90.40
2018-10-18T03:34:09.945Z,90.30
2018-10-18T03:36:39.681Z,90.40
2018-10-18T03:39:10.760Z,90.40
2018-10-18T03:41:40.519Z,90.50
2018-10-18T03:44:10.405Z,90.40
2018-10-18T03:46:40.141Z,90.40
2018-10-18T03:49:09.950Z,90.60
2018-10-18T03:51:39.718Z,90.60
2018-10-18T03:54:09.551Z,90.70
2018-10-18T03:56:39.151Z,90.60
2018-10-18T03:59:09.025Z,90.90
2018-10-18T04:01:38.756Z,90.70
2018-10-18T04:04:08.458Z,90.70
2018-10-18T04:06:38.176Z,90.70
2018-10-18T04:09:09.390Z,90.80
2018-10-18T04:11:40.148Z,90.90
2018-10-18T04:14:10.012Z,90.90
2018-10-18T04:16:39.735Z,90.80
2018-10-18T04:19:09.547Z,90.80
2018-10-18T04:21:39.294Z,90.80
2018-10-18T04:24:09.078Z,90.70
2018-10-18T04:26:38.769Z,90.60
2018-10-18T04:29:08.482Z,90.60
2018-10-18T04:31:38.209Z,90.90
2018-10-18T04:34:07.954Z,90.80
2018-10-18T04:36:37.698Z,90.80
2018-10-18T04:39:09.574Z,91.00
2018-10-18T04:41:39.378Z,91.10
2018-10-18T04:44:09.210Z,91.10
2018-10-18T04:46:39.080Z,91.10
2018-10-18T04:49:08.760Z,91.30
2018-10-18T04:51:38.510Z,91.40
2018-10-18T04:54:08.189Z,91.50
2018-10-18T04:56:37.972Z,91.60
2018-10-18T04:59:07.693Z,91.80
2018-10-18T05:01:37.448Z,91.90
2018-10-18T05:04:07.236Z,91.90
2018-10-18T05:06:37.044Z,92.00
2018-10-18T05:09:07.834Z,92.10
2018-10-18T05:11:37.923Z,92.10
2018-10-18T05:14:07.654Z,92.30
2018-10-18T05:16:37.452Z,92.10
2018-10-18T05:19:07.194Z,92.00
2018-10-18T05:21:37.000Z,91.80
2018-10-18T05:24:06.748Z,91.60
2018-10-18T05:26:36.566Z,91.60
2018-10-18T05:29:06.281Z,91.60
2018-10-18T05:31:36.031Z,91.40
2018-10-18T05:34:05.946Z,91.60
2018-10-18T05:36:35.705Z,91.80
2018-10-18T05:39:08.389Z,91.90
2018-10-18T05:41:38.141Z,92.10
2018-10-18T05:44:07.899Z,92.30
2018-10-18T05:46:37.705Z,92.40
2018-10-18T05:49:07.390Z,92.50
2018-10-18T05:51:37.167Z,92.50
2018-10-18T05:54:07.188Z,92.60
2018-10-18T05:56:36.806Z,92.60
2018-10-18T05:59:06.626Z,92.70
2018-10-18T06:01:36.351Z,92.60
2018-10-18T06:04:06.333Z,92.40
2018-10-18T06:06:36.222Z,92.30
2018-10-18T06:09:10.068Z,92.50
2018-10-18T06:11:39.906Z,92.30
2018-10-18T06:14:09.659Z,92.50
2018-10-18T06:16:39.386Z,92.60
2018-10-18T06:19:09.188Z,92.60
2018-10-18T06:21:38.962Z,92.70
2018-10-18T06:24:08.660Z,92.80
2018-10-18T06:26:38.550Z,92.80
2018-10-18T06:29:08.385Z,93.20
2018-10-18T06:31:38.090Z,93.40
2018-10-18T06:34:07.874Z,93.70
2018-10-18T06:36:37.711Z,94.00
2018-10-18T06:39:09.371Z,94.20
2018-10-18T06:41:39.998Z,94.50
2018-10-18T06:44:09.719Z,94.60
2018-10-18T06:46:39.596Z,94.60
2018-10-18T06:49:09.680Z,94.50
2018-10-18T06:51:39.306Z,94.60
2018-10-18T06:54:09.200Z,94.80
2018-10-18T06:56:38.932Z,95.10
2018-10-18T06:59:08.828Z,95.20
2018-10-18T07:01:38.676Z,95.80
2018-10-18T07:04:08.508Z,96.40
2018-10-18T07:06:38.206Z,96.90
2018-10-18T07:09:09.838Z,97.30
2018-10-18T07:11:39.771Z,97.30
2018-10-18T07:14:09.948Z,97.60
2018-10-18T07:16:39.760Z,97.70
2018-10-18T07:19:09.498Z,97.70
2018-10-18T07:21:39.274Z,97.70
2018-10-18T07:24:09.136Z,97.80
2018-10-18T07:26:38.918Z,97.80
2018-10-18T07:29:08.686Z,97.80
2018-10-18T07:31:38.571Z,97.70
2018-10-18T07:34:08.416Z,97.70
2018-10-18T07:36:38.164Z,97.80
2018-10-18T07:39:11.513Z,97.90
2018-10-18T07:41:41.454Z,97.70
2018-10-18T07:44:11.493Z,97.50
2018-10-18T07:46:41.456Z,98.00
2018-10-18T07:49:11.207Z,98.00
2018-10-18T07:51:41.067Z,98.40
2018-10-18T07:54:11.126Z,98.50
2018-10-18T07:56:40.894Z,98.40
2018-10-18T07:59:10.762Z,98.30
2018-10-18T08:01:40.548Z,98.30
2018-10-18T08:04:10.383Z,98.40
2018-10-18T08:06:40.202Z,98.20
2018-10-18T08:09:12.184Z,98.30
2018-10-18T08:11:42.078Z,98.20
2018-10-18T08:14:12.013Z,98.00
2018-10-18T08:16:41.776Z,98.00
2018-10-18T08:19:11.649Z,97.80
2018-10-18T08:21:41.305Z,97.90
2018-10-18T08:24:11.081Z,97.90
2018-10-18T08:26:40.847Z,97.70
2018-10-18T08:29:10.736Z,97.60
2018-10-18T08:31:40.652Z,97.50
2018-10-18T08:34:10.395Z,97.40
2018-10-18T08:36:40.123Z,97.20
2018-10-18T08:39:11.271Z,97.30
2018-10-18T08:41:41.160Z,97.30
2018-10-18T08:44:11.118Z,97.30
2018-10-18T08:46:40.845Z,96.80
2018-10-18T08:49:10.821Z,96.60
2018-10-18T08:51:40.685Z,96.80
2018-10-18T08:54:10.573Z,96.80
2018-10-18T08:56:40.434Z,96.50
2018-10-18T08:59:10.231Z,96.40
2018-10-18T09:01:40.015Z,96.40
2018-10-18T09:04:09.811Z,96.40
2018-10-18T09:06:39.555Z,96.20
2018-10-18T09:09:09.855Z,95.70
2018-10-18T09:11:39.605Z,95.90
2018-10-18T09:14:09.367Z,96.00
2018-10-18T09:16:39.285Z,96.00
2018-10-18T09:19:09.137Z,95.90
2018-10-18T09:21:39.094Z,96.00
2018-10-18T09:24:08.887Z,95.30
2018-10-18T09:26:38.671Z,95.30
2018-10-18T09:29:08.459Z,94.70
2018-10-18T09:31:38.239Z,94.30
2018-10-18T09:34:08.019Z,94.40
2018-10-18T09:36:37.749Z,94.00
2018-10-18T09:39:08.533Z,93.80
2018-10-18T09:41:38.258Z,93.50
2018-10-18T09:44:08.111Z,93.10
2018-10-18T09:46:38.133Z,92.90
2018-10-18T09:49:08.159Z,93.10
2018-10-18T09:51:37.841Z,92.50
2018-10-18T09:54:07.764Z,92.10
2018-10-18T09:56:37.639Z,90.80
2018-10-18T09:59:07.495Z,90.90
2018-10-18T10:01:42.517Z,90.00
2018-10-18T10:04:12.491Z,88.10
2018-10-18T10:06:42.239Z,87.60
2018-10-18T10:09:12.033Z,86.20
2018-10-18T10:11:41.875Z,87.60
2018-10-18T10:14:11.559Z,87.70
2018-10-18T10:16:41.504Z,87.80
2018-10-18T10:19:11.279Z,85.90
2018-10-18T10:21:41.475Z,85.00
2018-10-18T10:24:11.218Z,83.90
2018-10-18T10:26:41.115Z,81.60
2018-10-18T10:29:10.884Z,81.00
2018-10-18T10:31:40.679Z,81.50
2018-10-18T10:34:11.433Z,82.00
2018-10-18T10:36:41.347Z,81.80
2018-10-18T10:39:11.153Z,80.90
2018-10-18T10:41:40.869Z,80.60
2018-10-18T10:44:10.956Z,79.90
2018-10-18T10:46:41.317Z,79.50
2018-10-18T10:49:11.166Z,80.00
2018-10-18T10:51:40.952Z,79.50
2018-10-18T10:54:11.027Z,76.00
2018-10-18T10:56:41.056Z,77.20
2018-10-18T10:59:16.552Z,74.50
2018-10-18T11:01:46.406Z,72.30
2018-10-18T11:04:16.292Z,73.80
2018-10-18T11:06:46.079Z,73.60
2018-10-18T11:09:16.169Z,74.60
2018-10-18T11:11:45.838Z,73.50
2018-10-18T11:14:15.593Z,71.20
2018-10-18T11:16:45.568Z,72.60
2018-10-18T11:19:15.374Z,69.50
2018-10-18T11:21:45.145Z,70.00
2018-10-18T11:24:15.872Z,68.10
2018-10-18T11:26:45.582Z,67.50
2018-10-18T11:29:15.322Z,69.00
2018-10-18T11:31:45.054Z,67.10
2018-10-18T11:34:14.854Z,66.60
2018-10-18T11:36:44.578Z,67.90
2018-10-18T11:39:14.410Z,66.30
2018-10-18T11:41:44.150Z,65.70
2018-10-18T11:44:14.107Z,66.00
2018-10-18T11:46:43.777Z,66.60
2018-10-18T11:49:13.666Z,65.90
2018-10-18T11:51:46.256Z,66.30
2018-10-18T11:54:33.048Z,65.80
2018-10-18T11:57:05.982Z,64.50
2018-10-18T11:59:35.754Z,64.10
2018-10-18T12:02:06.479Z,63.80
2018-10-18T12:04:36.133Z,63.70
2018-10-18T12:07:06.386Z,63.40
2018-10-18T12:09:36.246Z,64.20
2018-10-18T12:12:06.283Z,62.00
2018-10-18T12:14:36.045Z,63.00
2018-10-18T12:17:06.234Z,60.50
2018-10-18T12:19:35.994Z,59.30
2018-10-18T12:22:05.992Z,59.00
2018-10-18T12:24:35.785Z,56.80
2018-10-18T12:27:06.351Z,58.00
2018-10-18T12:29:36.099Z,58.00
2018-10-18T12:32:06.256Z,57.40
2018-10-18T12:34:36.026Z,55.10
2018-10-18T12:37:06.157Z,54.10
2018-10-18T12:39:36.055Z,53.40
2018-10-18T12:42:06.023Z,54.00
2018-10-18T12:44:37.807Z,53.70
2018-10-18T12:47:09.214Z,54.20
2018-10-18T12:49:40.324Z,54.20
2018-10-18T12:52:12.221Z,53.70
2018-10-18T12:54:42.149Z,52.20
2018-10-18T12:57:12.773Z,53.70
2018-10-18T12:59:42.888Z,51.20
2018-10-18T13:02:12.773Z,51.30
2018-10-18T13:04:42.463Z,51.10
2018-10-18T13:07:12.294Z,50.00
2018-10-18T13:09:43.402Z,50.50
2018-10-18T13:12:13.267Z,50.80
2018-10-18T13:14:43.035Z,51.90
2018-10-18T13:17:12.782Z,51.60
2018-10-18T13:19:42.526Z,50.70
2018-10-18T13:22:12.311Z,50.90
2018-10-18T13:24:42.074Z,51.50
2018-10-18T13:27:11.903Z,51.40
2018-10-18T13:29:41.783Z,50.90
2018-10-18T13:32:11.569Z,49.40
2018-10-18T13:34:41.301Z,50.00
2018-10-18T13:37:11.063Z,50.10
2018-10-18T13:39:40.868Z,50.00
2018-10-18T13:42:10.715Z,49.40
2018-10-18T13:44:40.493Z,48.90
2018-10-18T13:47:10.366Z,48.20
2018-10-18T13:49:40.141Z,49.00
2018-10-18T13:52:10.010Z,49.60
2018-10-18T13:54:39.849Z,50.30
2018-10-18T13:57:09.590Z,50.10
2018-10-18T13:59:50.871Z,51.10
2018-10-18T14:02:20.789Z,50.60
2018-10-18T14:04:50.424Z,51.00
2018-10-18T14:07:20.350Z,51.00
2018-10-18T14:09:50.190Z,51.70
2018-10-18T14:12:20.037Z,51.10
2018-10-18T14:14:49.928Z,52.40
2018-10-18T14:17:20.106Z,52.40
2018-10-18T14:19:49.829Z,51.70
2018-10-18T14:22:19.664Z,53.50
2018-10-18T14:24:49.614Z,53.50
2018-10-18T14:27:19.435Z,53.70
2018-10-18T14:29:49.255Z,54.00
2018-10-18T14:32:19.276Z,53.90
2018-10-18T14:34:49.113Z,53.60
2018-10-18T14:37:18.885Z,55.10
2018-10-18T14:39:48.857Z,54.70
2018-10-18T14:42:19.073Z,54.30
2018-10-18T14:44:51.647Z,54.30
2018-10-18T14:47:22.879Z,53.60
2018-10-18T14:49:52.852Z,54.20
2018-10-18T14:52:22.760Z,55.40
2018-10-18T14:54:52.483Z,54.80
2018-10-18T14:57:22.231Z,55.80
2018-10-18T14:59:52.011Z,55.10
2018-10-18T15:02:21.867Z,55.00
2018-10-18T15:04:51.781Z,55.90
2018-10-18T15:07:21.720Z,58.10
2018-10-18T15:09:51.459Z,56.20
2018-10-18T15:12:21.388Z,56.30
2018-10-18T15:14:51.157Z,56.10
2018-10-18T15:17:21.119Z,57.80
2018-10-18T15:19:51.061Z,58.00
2018-10-18T15:22:20.841Z,56.30
2018-10-18T15:24:50.671Z,56.70
2018-10-18T15:27:20.576Z,56.90
2018-10-18T15:29:50.811Z,57.00
2018-10-18T15:32:20.617Z,57.50
2018-10-18T15:34:50.450Z,58.80
2018-10-18T15:37:20.303Z,59.20
2018-10-18T15:39:50.252Z,59.40
2018-10-18T15:42:20.268Z,60.50
2018-10-18T15:44:50.294Z,60.10
2018-10-18T15:47:20.128Z,60.60
2018-10-18T15:49:49.827Z,60.60
2018-10-18T15:52:19.727Z,62.90
2018-10-18T15:54:49.641Z,64.20
2018-10-18T15:57:19.602Z,64.70
2018-10-18T15:59:49.446Z,64.70
2018-10-18T16:02:20.393Z,65.50
2018-10-18T16:04:50.172Z,65.80
2018-10-18T16:07:20.042Z,66.90
2018-10-18T16:09:49.810Z,66.70
2018-10-18T16:12:19.619Z,68.10
2018-10-18T16:14:49.407Z,68.90
2018-10-18T16:17:19.350Z,68.60
2018-10-18T16:19:49.348Z,69.60
2018-10-18T16:22:19.185Z,70.40
2018-10-18T16:24:49.029Z,71.30
2018-10-18T16:27:19.119Z,71.50
2018-10-18T16:29:48.914Z,71.80
2018-10-18T16:32:18.751Z,73.40
2018-10-18T16:34:48.458Z,72.30
2018-10-18T16:37:18.336Z,72.40
2018-10-18T16:39:48.269Z,73.80
2018-10-18T16:42:18.122Z,74.20
2018-10-18T16:44:47.920Z,75.00
2018-10-18T16:47:17.824Z,75.90
2018-10-18T16:49:47.598Z,76.20
2018-10-18T16:52:17.465Z,77.20
2018-10-18T16:54:47.278Z,77.30
2018-10-18T16:57:17.080Z,77.10
2018-10-18T16:59:46.986Z,77.60
2018-10-18T17:02:17.054Z,78.70
2018-10-18T17:04:47.044Z,78.00
2018-10-18T17:07:16.846Z,77.80
2018-10-18T17:09:46.672Z,78.90
2018-10-18T17:12:16.557Z,78.90
2018-10-18T17:14:46.418Z,78.60
2018-10-18T17:17:16.175Z,79.10
2018-10-18T17:19:46.013Z,79.40
2018-10-18T17:22:15.851Z,79.70
2018-10-18T17:24:45.684Z,80.60
2018-10-18T17:27:15.765Z,80.90
2018-10-18T17:29:45.450Z,81.20
2018-10-18T17:32:15.537Z,81.50
2018-10-18T17:34:45.216Z,81.40
2018-10-18T17:37:15.034Z,82.20
2018-10-18T17:39:44.990Z,82.40
2018-10-18T17:42:14.900Z,82.60
2018-10-18T17:44:44.721Z,82.80
2018-10-18T17:47:14.725Z,83.30
2018-10-18T17:49:44.601Z,83.10
2018-10-18T17:52:14.503Z,83.70
2018-10-18T17:54:44.288Z,84.00
2018-10-18T17:57:17.752Z,84.10
2018-10-18T17:59:47.643Z,84.20
2018-10-18T18:02:17.655Z,84.50
2018-10-18T18:04:47.366Z,84.90
2018-10-18T18:07:17.425Z,84.80
2018-10-18T18:09:47.395Z,85.50
2018-10-18T18:12:17.297Z,85.70
2018-10-18T18:14:47.129Z,85.90
2018-10-18T18:17:16.875Z,86.30
2018-10-18T18:19:46.779Z,86.20
2018-10-18T18:22:16.672Z,86.40
2018-10-18T18:24:48.138Z,86.40
2018-10-18T18:27:17.991Z,87.40
2018-10-18T18:29:47.781Z,86.70
2018-10-18T18:32:17.577Z,87.60
2018-10-18T18:34:47.404Z,88.30
2018-10-18T18:37:17.241Z,88.00
2018-10-18T18:39:47.187Z,88.00
2018-10-18T18:42:17.038Z,88.00
2018-10-18T18:44:46.918Z,88.40
2018-10-18T18:47:16.823Z,88.80
2018-10-18T18:49:46.639Z,88.70
2018-10-18T18:52:16.410Z,88.70
2018-10-18T18:54:46.208Z,89.20
2018-10-18T18:57:16.200Z,89.30
2018-10-18T18:59:46.024Z,89.40
2018-10-18T19:02:15.943Z,89.60
2018-10-18T19:04:45.804Z,89.70
2018-10-18T19:07:15.596Z,90.00
2018-10-18T19:09:45.430Z,90.10
2018-10-18T19:12:15.273Z,90.30
2018-10-18T19:14:45.113Z,90.20
2018-10-18T19:17:15.146Z,90.10
2018-10-18T19:19:44.910Z,90.30
2018-10-18T19:22:14.767Z,90.70
2018-10-18T19:24:44.502Z,90.60
2018-10-18T19:27:14.327Z,90.80
2018-10-18T19:29:44.161Z,90.80
2018-10-18T19:32:14.111Z,91.00
2018-10-18T19:34:43.875Z,91.00
2018-10-18T19:37:13.924Z,90.90
2018-10-18T19:39:43.670Z,91.10
2018-10-18T19:42:13.656Z,90.90
2018-10-18T19:44:43.445Z,91.00
2018-10-18T19:47:13.238Z,91.10
2018-10-18T19:49:43.170Z,91.30
2018-10-18T19:52:13.221Z,91.20
2018-10-18T19:54:42.878Z,91.60
2018-10-18T19:57:12.605Z,91.60
2018-10-18T19:59:42.394Z,91.40
2018-10-18T20:02:12.368Z,91.40
2018-10-18T20:04:42.065Z,91.30
2018-10-18T20:07:12.107Z,91.30
2018-10-18T20:09:41.908Z,91.30
2018-10-18T20:12:11.813Z,91.60
2018-10-18T20:14:41.625Z,91.80
2018-10-18T20:17:11.411Z,91.60
2018-10-18T20:19:41.321Z,91.90
2018-10-18T20:22:12.811Z,91.80
2018-10-18T20:24:42.833Z,91.80
2018-10-18T20:27:12.830Z,91.70
2018-10-18T20:29:42.649Z,91.80
2018-10-18T20:32:12.784Z,92.10
2018-10-18T20:34:42.528Z,92.00
2018-10-18T20:37:12.471Z,92.10
2018-10-18T20:39:42.365Z,92.10
2018-10-18T20:42:12.088Z,92.10
2018-10-18T20:44:42.024Z,92.10
2018-10-18T20:47:11.854Z,91.90
2018-10-18T20:49:41.607Z,91.90
2018-10-18T20:52:11.419Z,92.00
2018-10-18T20:54:41.355Z,91.90
2018-10-18T20:57:11.116Z,91.90
2018-10-18T20:59:40.887Z,92.00
2018-10-18T21:02:10.848Z,92.10
2018-10-18T21:04:40.686Z,92.20
2018-10-18T21:07:10.497Z,92.40
2018-10-18T21:09:40.219Z,92.40
2018-10-18T21:12:10.048Z,92.40
2018-10-18T21:14:39.738Z,92.50
2018-10-18T21:17:09.501Z,92.40
2018-10-18T21:19:39.233Z,92.40
2018-10-18T21:22:09.294Z,92.20
2018-10-18T21:24:39.400Z,92.40
2018-10-18T21:27:09.366Z,92.40
2018-10-18T21:29:39.184Z,92.40
2018-10-18T21:32:11.501Z,92.30
2018-10-18T21:34:41.395Z,92.20
2018-10-18T21:37:11.133Z,92.40
2018-10-18T21:39:40.903Z,92.60
2018-10-18T21:42:10.659Z,92.40
2018-10-18T21:44:40.905Z,92.40
2018-10-18T21:47:11.828Z,92.60
2018-10-18T21:49:41.937Z,92.80
2018-10-18T21:52:11.748Z,92.90
2018-10-18T21:54:41.476Z,92.90
2018-10-18T21:57:11.275Z,92.80
2018-10-18T21:59:41.015Z,92.80
2018-10-18T22:02:10.809Z,93.00
2018-10-18T22:04:40.498Z,93.00
2018-10-18T22:07:10.403Z,93.00
2018-10-18T22:09:40.102Z,93.00
2018-10-18T22:12:10.451Z,93.00
2018-10-18T22:14:40.225Z,93.00
2018-10-18T22:17:10.133Z,92.90
2018-10-18T22:19:39.787Z,92.70
2018-10-18T22:22:09.621Z,92.60
2018-10-18T22:24:39.342Z,92.50
2018-10-18T22:27:09.445Z,92.50
2018-10-18T22:29:39.192Z,92.70
2018-10-18T22:32:09.143Z,92.70
2018-10-18T22:34:38.894Z,92.70
2018-10-18T22:37:08.701Z,92.70
2018-10-18T22:39:38.574Z,92.80
2018-10-18T22:42:08.857Z,92.70
2018-10-18T22:44:38.572Z,92.70
2018-10-18T22:47:08.363Z,92.50
2018-10-18T22:49:38.029Z,92.80
2018-10-18T22:52:07.970Z,92.80
2018-10-18T22:54:37.641Z,93.50
2018-10-18T22:57:07.415Z,93.60
2018-10-18T22:59:37.105Z,93.50
2018-10-18T23:02:06.790Z,93.40
2018-10-18T23:04:36.483Z,93.40
2018-10-18T23:07:06.187Z,93.20
2018-10-18T23:09:35.891Z,93.30
2018-10-18T23:12:05.871Z,93.30
2018-10-18T23:14:35.746Z,93.50
2018-10-18T23:17:05.662Z,93.40
2018-10-18T23:19:35.359Z,93.40
2018-10-18T23:22:07.170Z,93.30
2018-10-18T23:24:38.771Z,93.40
2018-10-18T23:27:08.965Z,93.30
2018-10-18T23:29:39.790Z,93.30
2018-10-18T23:34:32.129Z,93.40
2018-10-18T23:37:01.870Z,93.30
2018-10-18T23:39:31.943Z,93.20
2018-10-18T23:42:01.776Z,93.20
2018-10-18T23:44:31.463Z,93.00
2018-10-18T23:47:01.261Z,93.20
2018-10-18T23:49:30.915Z,93.00
2018-10-18T23:52:00.913Z,93.20
2018-10-18T23:54:30.601Z,93.30
2018-10-18T23:57:00.339Z,93.40
2018-10-18T23:59:30.008Z,93.40
